createdAt,value
2022-12-23T00:01:43.496Z,13.60
2022-12-23T00:04:11.986Z,13.63
2022-12-23T00:06:40.509Z,13.63
2022-12-23T00:09:08.905Z,13.62
2022-12-23T00:11:37.275Z,13.61
2022-12-23T00:14:23.174Z,13.56
2022-12-23T00:16:53.328Z,13.50
2022-12-23T00:19:21.877Z,13.44
2022-12-23T00:21:50.287Z,13.38
2022-12-23T00:24:18.894Z,13.31
2022-12-23T00:26:47.294Z,13.23
2022-12-23T00:29:15.750Z,13.17
2022-12-23T00:31:44.204Z,13.11
2022-12-23T00:34:14.217Z,13.03
2022-12-23T00:36:42.678Z,12.96
2022-12-23T00:39:31.744Z,12.87
2022-12-23T00:42:17.466Z,12.79
2022-12-23T00:44:46.081Z,12.69
2022-12-23T00:47:36.166Z,12.63
2022-12-23T00:50:06.217Z,12.56
2022-12-23T00:52:34.810Z,12.49
2022-12-23T00:55:03.195Z,12.42
2022-12-23T00:57:31.614Z,12.36
2022-12-23T01:00:00.014Z,12.28
2022-12-23T01:02:46.120Z,12.22
2022-12-23T01:05:33.316Z,12.14
2022-12-23T01:08:01.788Z,12.08
2022-12-23T01:10:30.434Z,12.03
2022-12-23T01:12:58.826Z,11.99
2022-12-23T01:15:27.587Z,11.94
2022-12-23T01:17:56.457Z,11.91
2022-12-23T01:20:26.517Z,11.88
2022-12-23T01:22:54.951Z,11.86
2022-12-23T01:25:23.363Z,11.85
2022-12-23T01:27:51.797Z,11.83
2022-12-23T01:30:20.411Z,11.82
2022-12-23T01:32:48.780Z,11.82
2022-12-23T01:35:17.469Z,11.81
2022-12-23T01:37:47.221Z,11.79
2022-12-23T01:40:15.774Z,11.76
2022-12-23T01:42:46.762Z,11.73
2022-12-23T01:45:18.864Z,11.71
2022-12-23T01:47:54.469Z,11.70
2022-12-23T01:50:27.369Z,11.69
2022-12-23T01:53:08.048Z,11.68
2022-12-23T01:55:44.537Z,11.68
2022-12-23T01:58:19.076Z,11.69
2022-12-23T02:01:04.749Z,11.70
2022-12-23T02:03:45.484Z,11.71
2022-12-23T02:06:38.179Z,11.72
2022-12-23T02:09:20.983Z,11.75
2022-12-23T02:12:36.914Z,11.79
2022-12-23T02:15:42.074Z,11.83
2022-12-23T02:18:55.611Z,11.84
2022-12-23T02:22:17.738Z,11.87
2022-12-23T02:25:26.901Z,11.88
2022-12-23T02:28:18.768Z,11.91
2022-12-23T02:30:55.801Z,11.94
2022-12-23T02:33:51.308Z,11.91
2022-12-23T02:36:35.947Z,11.93
2022-12-23T02:39:09.890Z,11.91
2022-12-23T02:41:49.538Z,11.91
2022-12-23T02:44:31.272Z,11.94
2022-12-23T02:47:06.734Z,11.94
2022-12-23T02:49:39.180Z,11.96
2022-12-23T02:52:18.476Z,11.97
2022-12-23T02:54:54.807Z,11.99
2022-12-23T02:57:30.799Z,12.01
2022-12-23T03:00:00.184Z,12.04
2022-12-23T03:02:31.708Z,12.06
2022-12-23T03:05:01.167Z,12.07
2022-12-23T03:07:36.548Z,12.09
2022-12-23T03:10:17.701Z,12.11
2022-12-23T03:13:01.998Z,12.13
2022-12-23T03:15:40.225Z,12.16
2022-12-23T03:18:22.301Z,12.19
2022-12-23T03:20:55.931Z,12.24
2022-12-23T03:23:30.308Z,12.29
2022-12-23T03:26:05.770Z,12.32
2022-12-23T03:28:41.093Z,12.36
2022-12-23T03:31:15.726Z,12.37
2022-12-23T03:33:49.303Z,12.41
2022-12-23T03:36:23.464Z,12.45
2022-12-23T03:38:54.799Z,12.46
2022-12-23T03:41:31.427Z,12.42
2022-12-23T03:44:07.555Z,12.38
2022-12-23T03:46:40.631Z,12.34
2022-12-23T03:49:16.178Z,12.30
2022-12-23T03:51:52.245Z,12.26
2022-12-23T03:54:27.303Z,12.22
2022-12-23T03:57:03.733Z,12.17
2022-12-23T03:59:35.719Z,12.16
2022-12-23T04:02:11.803Z,12.16
2022-12-23T04:05:19.661Z,12.16
2022-12-23T04:07:55.690Z,12.20
2022-12-23T04:10:25.126Z,12.23
2022-12-23T04:12:53.799Z,12.22
2022-12-23T04:15:23.966Z,12.16
2022-12-23T04:17:54.371Z,12.08
2022-12-23T04:20:24.699Z,11.97
2022-12-23T04:22:53.228Z,11.88
2022-12-23T04:25:21.667Z,11.79
2022-12-23T04:27:50.086Z,11.70
2022-12-23T04:30:18.655Z,11.63
2022-12-23T04:32:47.163Z,11.60
2022-12-23T04:35:15.605Z,11.59
2022-12-23T04:37:45.416Z,11.58
2022-12-23T04:40:14.579Z,11.59
2022-12-23T04:42:42.980Z,11.59
2022-12-23T04:45:12.372Z,11.59
2022-12-23T04:47:41.554Z,11.58
2022-12-23T04:50:15.787Z,11.57
2022-12-23T04:52:46.244Z,11.58
2022-12-23T04:55:14.704Z,11.61
2022-12-23T04:57:43.193Z,11.65
2022-12-23T05:00:13.108Z,11.66
2022-12-23T05:02:41.582Z,11.67
2022-12-23T05:05:10.795Z,11.70
2022-12-23T05:07:39.189Z,11.68
2022-12-23T05:10:11.129Z,11.69
2022-12-23T05:12:39.530Z,11.69
2022-12-23T05:15:10.153Z,11.68
2022-12-23T05:17:38.544Z,11.67
2022-12-23T05:20:08.967Z,11.65
2022-12-23T05:22:37.475Z,11.65
2022-12-23T05:25:09.072Z,11.63
2022-12-23T05:27:37.868Z,11.62
2022-12-23T05:30:08.429Z,11.63
2022-12-23T05:32:36.998Z,11.65
2022-12-23T05:35:06.002Z,11.66
2022-12-23T05:37:34.374Z,11.70
2022-12-23T05:40:02.779Z,11.75
2022-12-23T05:42:32.754Z,11.77
2022-12-23T05:45:01.110Z,11.80
2022-12-23T05:47:29.537Z,11.82
2022-12-23T05:49:57.927Z,11.83
2022-12-23T05:52:26.451Z,11.86
2022-12-23T05:54:54.893Z,11.86
2022-12-23T05:57:23.389Z,11.86
2022-12-23T05:59:53.747Z,11.86
2022-12-23T06:02:22.499Z,11.87
2022-12-23T06:04:51.261Z,11.85
2022-12-23T06:07:19.658Z,11.82
2022-12-23T06:09:48.238Z,11.78
2022-12-23T06:12:16.618Z,11.75
2022-12-23T06:14:45.077Z,11.74
2022-12-23T06:17:14.919Z,11.73
2022-12-23T06:19:43.436Z,11.72
2022-12-23T06:22:11.843Z,11.68
2022-12-23T06:24:40.334Z,11.65
2022-12-23T06:27:08.944Z,11.62
2022-12-23T06:29:37.439Z,11.59
2022-12-23T06:32:06.535Z,11.56
2022-12-23T06:34:36.625Z,11.54
2022-12-23T06:37:05.058Z,11.55
2022-12-23T06:39:33.518Z,11.55
2022-12-23T06:42:01.948Z,11.57
2022-12-23T06:44:30.431Z,11.60
2022-12-23T06:46:59.035Z,11.63
2022-12-23T06:49:27.466Z,11.64
2022-12-23T06:51:57.283Z,11.66
2022-12-23T06:54:25.752Z,11.66
2022-12-23T06:56:54.253Z,11.68
2022-12-23T06:59:22.695Z,11.72
2022-12-23T07:01:51.238Z,11.75
2022-12-23T07:04:19.841Z,11.77
2022-12-23T07:06:48.271Z,11.77
2022-12-23T07:09:18.320Z,11.79
2022-12-23T07:11:46.978Z,11.79
2022-12-23T07:14:15.548Z,11.77
2022-12-23T07:16:43.995Z,11.76
2022-12-23T07:19:12.478Z,11.76
2022-12-23T07:21:40.993Z,11.77
2022-12-23T07:24:10.179Z,11.78
2022-12-23T07:26:40.007Z,11.79
2022-12-23T07:29:08.429Z,11.82
2022-12-23T07:31:40.705Z,11.85
2022-12-23T07:34:09.971Z,11.90
2022-12-23T07:36:38.470Z,11.93
2022-12-23T07:39:07.241Z,11.97
2022-12-23T07:41:35.780Z,12.01
2022-12-23T07:44:05.729Z,12.05
2022-12-23T07:46:34.200Z,12.11
2022-12-23T07:49:02.659Z,12.16
2022-12-23T07:51:31.179Z,12.21
2022-12-23T07:54:00.099Z,12.25
2022-12-23T07:56:28.684Z,12.29
2022-12-23T07:58:57.164Z,12.36
2022-12-23T08:01:27.144Z,12.40
2022-12-23T08:03:56.331Z,12.46
2022-12-23T08:06:24.893Z,12.50
2022-12-23T08:08:53.512Z,12.54
2022-12-23T08:11:21.938Z,12.78
2022-12-23T08:13:50.470Z,12.80
2022-12-23T08:16:18.999Z,12.85
2022-12-23T08:18:48.945Z,12.86
2022-12-23T08:21:20.092Z,12.86
2022-12-23T08:23:49.487Z,12.88
2022-12-23T08:26:22.309Z,12.92
2022-12-23T08:28:53.583Z,12.94
2022-12-23T08:31:25.343Z,12.94
2022-12-23T08:33:58.055Z,12.94
2022-12-23T08:36:29.499Z,12.95
2022-12-23T08:39:01.095Z,12.93
2022-12-23T08:41:32.531Z,12.93
2022-12-23T08:44:01.449Z,12.94
2022-12-23T08:46:30.324Z,12.98
2022-12-23T08:49:00.390Z,13.00
2022-12-23T08:51:29.519Z,12.99
2022-12-23T08:54:00.924Z,12.96
2022-12-23T08:56:33.302Z,12.94
2022-12-23T08:59:02.300Z,12.92
2022-12-23T09:01:33.450Z,12.90
2022-12-23T09:04:06.180Z,12.86
2022-12-23T09:06:37.557Z,12.85
2022-12-23T09:09:06.660Z,12.87
2022-12-23T09:11:36.087Z,12.92
2022-12-23T09:14:05.421Z,13.00
2022-12-23T09:16:33.986Z,13.08
2022-12-23T09:19:04.471Z,13.16
2022-12-23T09:21:32.958Z,13.18
2022-12-23T09:24:01.660Z,13.19
2022-12-23T09:26:32.307Z,13.20
2022-12-23T09:29:01.836Z,13.36
2022-12-23T09:31:36.249Z,13.38
2022-12-23T09:34:07.685Z,13.40
2022-12-23T09:36:36.208Z,13.39
2022-12-23T09:39:05.274Z,13.36
2022-12-23T09:41:50.069Z,13.34
2022-12-23T09:44:44.766Z,13.29
2022-12-23T09:47:18.781Z,13.28
2022-12-23T09:49:53.705Z,13.25
2022-12-23T09:52:28.382Z,13.23
2022-12-23T09:54:57.348Z,13.21
2022-12-23T09:57:37.454Z,13.22
2022-12-23T10:00:13.207Z,13.26
2022-12-23T10:03:01.696Z,13.25
2022-12-23T10:05:45.079Z,13.25
2022-12-23T10:08:23.716Z,13.26
2022-12-23T10:10:57.991Z,13.25
2022-12-23T10:13:29.796Z,13.23
2022-12-23T10:16:03.955Z,13.18
2022-12-23T10:18:46.955Z,13.17
2022-12-23T10:21:26.468Z,13.15
2022-12-23T10:23:56.526Z,13.17
2022-12-23T10:26:31.391Z,13.23
2022-12-23T10:29:11.798Z,13.34
2022-12-23T10:31:56.842Z,13.42
2022-12-23T10:34:38.601Z,13.44
2022-12-23T10:37:16.205Z,13.40
2022-12-23T10:39:51.736Z,13.32
2022-12-23T10:42:29.618Z,13.23
2022-12-23T10:45:28.854Z,13.14
2022-12-23T10:48:14.152Z,13.11
2022-12-23T10:50:56.889Z,13.07
2022-12-23T10:53:38.562Z,13.11
2022-12-23T10:56:08.511Z,13.16
2022-12-23T10:58:42.485Z,13.20
2022-12-23T11:01:22.098Z,13.27
2022-12-23T11:04:04.937Z,13.33
2022-12-23T11:06:38.030Z,13.37
2022-12-23T11:09:16.113Z,13.41
2022-12-23T11:12:00.794Z,13.42
2022-12-23T11:14:36.441Z,13.41
2022-12-23T11:17:16.120Z,13.41
2022-12-23T11:19:44.679Z,13.43
2022-12-23T11:22:25.337Z,13.42
2022-12-23T11:24:55.239Z,13.45
2022-12-23T11:27:23.777Z,13.46
2022-12-23T11:29:55.367Z,13.46
2022-12-23T11:32:28.649Z,13.54
2022-12-23T11:34:58.103Z,13.62
2022-12-23T11:37:42.431Z,13.64
2022-12-23T11:40:25.399Z,13.67
2022-12-23T11:42:59.220Z,13.73
2022-12-23T11:45:30.276Z,13.90
2022-12-23T11:47:58.875Z,14.13
2022-12-23T11:50:34.379Z,14.38
2022-12-23T11:53:13.523Z,14.71
2022-12-23T11:55:58.383Z,15.11
2022-12-23T11:58:28.873Z,15.51
2022-12-23T12:01:00.708Z,15.85
2022-12-23T12:03:34.098Z,16.09
2022-12-23T12:06:06.371Z,16.51
2022-12-23T12:08:38.494Z,16.90
2022-12-23T12:11:16.674Z,17.22
2022-12-23T12:13:49.429Z,17.53
2022-12-23T12:16:49.452Z,17.67
2022-12-23T12:19:25.611Z,17.87
2022-12-23T12:22:00.576Z,17.88
2022-12-23T12:24:34.173Z,17.80
2022-12-23T12:27:09.265Z,17.67
2022-12-23T12:29:46.530Z,17.54
2022-12-23T12:32:23.833Z,17.89
2022-12-23T12:34:58.988Z,17.99
2022-12-23T12:37:39.245Z,17.94
2022-12-23T12:40:23.633Z,17.74
2022-12-23T12:43:00.009Z,17.58
2022-12-23T12:45:35.901Z,17.43
2022-12-23T12:48:37.624Z,17.27
2022-12-23T12:51:14.243Z,17.22
2022-12-23T12:54:02.882Z,17.18
2022-12-23T12:56:42.205Z,17.13
2022-12-23T12:59:19.099Z,17.12
2022-12-23T13:02:01.673Z,17.14
2022-12-23T13:05:25.975Z,17.07
2022-12-23T13:08:13.010Z,16.99
2022-12-23T13:10:50.062Z,16.92
2022-12-23T13:13:36.626Z,16.81
2022-12-23T13:16:18.309Z,16.69
2022-12-23T13:18:57.591Z,16.56
2022-12-23T13:21:34.028Z,16.45
2022-12-23T13:24:16.122Z,16.34
2022-12-23T13:26:59.974Z,16.27
2022-12-23T13:30:01.858Z,16.21
2022-12-23T13:32:59.810Z,16.16
2022-12-23T13:35:43.405Z,16.18
2022-12-23T13:38:31.028Z,16.20
2022-12-23T13:41:07.116Z,16.20
2022-12-23T13:43:44.781Z,16.16
2022-12-23T13:46:36.955Z,16.05
2022-12-23T13:49:16.874Z,15.93
2022-12-23T13:51:53.346Z,15.88
2022-12-23T13:54:37.953Z,15.83
2022-12-23T13:57:19.422Z,15.81
2022-12-23T14:00:06.359Z,15.80
2022-12-23T14:02:52.017Z,15.81
2022-12-23T14:05:38.015Z,15.78
2022-12-23T14:08:09.491Z,15.76
2022-12-23T14:10:38.152Z,15.73
2022-12-23T14:13:09.662Z,15.70
2022-12-23T14:16:05.366Z,15.64
2022-12-23T14:19:05.563Z,15.58
2022-12-23T14:21:49.527Z,15.53
2022-12-23T14:25:13.217Z,15.48
2022-12-23T14:27:52.723Z,15.43
2022-12-23T14:30:29.133Z,15.35
2022-12-23T14:33:01.399Z,15.31
2022-12-23T14:35:58.641Z,15.21
2022-12-23T14:38:31.668Z,15.17
2022-12-23T14:41:25.746Z,15.08
2022-12-23T14:43:59.691Z,15.03
2022-12-23T14:46:59.417Z,14.96
2022-12-23T14:49:48.799Z,14.94
2022-12-23T14:52:49.061Z,14.95
2022-12-23T14:55:45.806Z,14.91
2022-12-23T14:59:12.488Z,14.88
2022-12-23T15:01:44.368Z,14.89
2022-12-23T15:04:24.574Z,14.88
2022-12-23T15:06:58.486Z,14.87
2022-12-23T15:09:31.454Z,14.85
2022-12-23T15:12:07.649Z,14.83
2022-12-23T15:14:40.943Z,14.81
2022-12-23T15:17:26.494Z,14.82
2022-12-23T15:20:03.404Z,14.83
2022-12-23T15:22:32.889Z,14.86
2022-12-23T15:25:01.365Z,14.88
2022-12-23T15:27:36.518Z,14.91
2022-12-23T15:30:05.799Z,14.93
2022-12-23T15:32:34.356Z,14.94
2022-12-23T15:35:07.306Z,14.97
2022-12-23T15:37:36.211Z,14.99
2022-12-23T15:40:13.228Z,15.01
2022-12-23T15:42:49.104Z,15.01
2022-12-23T15:45:36.232Z,15.01
2022-12-23T15:48:07.095Z,15.04
2022-12-23T15:50:41.889Z,15.04
2022-12-23T15:53:14.357Z,15.06
2022-12-23T15:55:43.008Z,15.06
2022-12-23T15:58:21.180Z,15.05
2022-12-23T16:00:57.541Z,15.06
2022-12-23T16:03:33.002Z,15.08
2022-12-23T16:06:18.763Z,15.08
2022-12-23T16:08:56.400Z,15.10
2022-12-23T16:11:25.155Z,15.11
2022-12-23T16:14:01.361Z,15.10
2022-12-23T16:16:41.829Z,15.10
2022-12-23T16:19:43.793Z,15.11
2022-12-23T16:22:30.532Z,15.13
2022-12-23T16:25:11.929Z,15.14
2022-12-23T16:27:44.700Z,15.13
2022-12-23T16:30:19.607Z,15.11
2022-12-23T16:32:52.497Z,15.10
2022-12-23T16:35:40.457Z,15.08
2022-12-23T16:38:15.831Z,15.08
2022-12-23T16:40:46.144Z,15.08
2022-12-23T16:43:15.050Z,15.08
2022-12-23T16:45:46.041Z,15.06
2022-12-23T16:48:26.292Z,15.05
2022-12-23T16:50:55.618Z,15.03
2022-12-23T16:53:24.165Z,15.01
2022-12-23T16:55:56.810Z,14.99
2022-12-23T16:58:28.961Z,14.98
2022-12-23T17:00:59.173Z,14.97
2022-12-23T17:03:27.765Z,14.97
2022-12-23T17:05:56.411Z,14.95
2022-12-23T17:08:24.971Z,14.92
2022-12-23T17:10:53.907Z,14.91
2022-12-23T17:13:22.364Z,14.89
2022-12-23T17:15:50.793Z,14.89
2022-12-23T17:18:20.721Z,14.89
2022-12-23T17:20:50.334Z,14.88
2022-12-23T17:23:29.523Z,14.85
2022-12-23T17:25:58.461Z,14.85
2022-12-23T17:28:31.994Z,14.86
2022-12-23T17:31:01.813Z,14.85
2022-12-23T17:33:33.523Z,14.82
2022-12-23T17:36:03.045Z,14.80
2022-12-23T17:38:31.627Z,14.75
2022-12-23T17:41:00.198Z,14.71
2022-12-23T17:43:29.283Z,14.67
2022-12-23T17:45:57.794Z,14.67
2022-12-23T17:48:31.384Z,14.68
2022-12-23T17:51:01.618Z,14.68
2022-12-23T17:53:30.139Z,14.66
2022-12-23T17:55:58.591Z,14.61
2022-12-23T17:58:27.035Z,14.58
2022-12-23T18:00:55.528Z,14.52
2022-12-23T18:03:25.035Z,14.49
2022-12-23T18:06:01.223Z,14.48
2022-12-23T18:08:31.733Z,14.44
2022-12-23T18:11:01.127Z,14.41
2022-12-23T18:13:29.709Z,14.40
2022-12-23T18:15:58.384Z,14.40
2022-12-23T18:18:35.608Z,14.41
2022-12-23T18:21:12.821Z,14.40
2022-12-23T18:23:42.931Z,14.36
2022-12-23T18:26:15.198Z,14.30
2022-12-23T18:28:44.018Z,14.25
2022-12-23T18:31:18.520Z,14.18
2022-12-23T18:33:47.374Z,14.13
2022-12-23T18:36:24.039Z,14.08
2022-12-23T18:38:54.524Z,14.04
2022-12-23T18:41:24.293Z,14.01
2022-12-23T18:43:52.952Z,14.00
2022-12-23T18:46:21.788Z,13.98
2022-12-23T18:48:51.607Z,13.99
2022-12-23T18:51:22.646Z,14.01
2022-12-23T18:53:51.548Z,14.03
2022-12-23T18:56:22.816Z,14.06
2022-12-23T18:58:51.307Z,14.06
2022-12-23T19:01:20.519Z,14.07
2022-12-23T19:03:49.123Z,14.08
2022-12-23T19:06:17.883Z,14.09
2022-12-23T19:08:46.587Z,14.06
2022-12-23T19:11:17.414Z,14.01
2022-12-23T19:13:47.837Z,13.94
2022-12-23T19:16:18.580Z,13.88
2022-12-23T19:18:48.267Z,13.87
2022-12-23T19:21:18.391Z,13.84
2022-12-23T19:23:46.955Z,13.82
2022-12-23T19:26:16.268Z,13.80
2022-12-23T19:28:48.180Z,13.78
2022-12-23T19:31:18.545Z,13.76
2022-12-23T19:33:48.370Z,13.75
2022-12-23T19:36:20.218Z,13.74
2022-12-23T19:38:48.753Z,13.74
2022-12-23T19:41:17.426Z,13.72
2022-12-23T19:43:47.952Z,13.71
2022-12-23T19:46:17.995Z,13.71
2022-12-23T19:48:52.921Z,13.69
2022-12-23T19:51:21.849Z,13.70
2022-12-23T19:53:53.090Z,13.68
2022-12-23T19:56:22.389Z,13.64
2022-12-23T19:58:52.270Z,13.64
2022-12-23T20:01:24.029Z,13.60
2022-12-23T20:03:54.878Z,13.59
2022-12-23T20:06:25.635Z,13.59
2022-12-23T20:09:00.011Z,13.58
2022-12-23T20:11:31.023Z,13.57
2022-12-23T20:14:02.642Z,13.56
2022-12-23T20:16:32.264Z,13.54
2022-12-23T20:19:01.131Z,13.55
2022-12-23T20:21:30.894Z,13.54
2022-12-23T20:23:59.482Z,13.75
2022-12-23T20:26:29.184Z,13.70
2022-12-23T20:28:58.512Z,13.67
2022-12-23T20:31:31.814Z,13.61
2022-12-23T20:34:01.951Z,13.60
2022-12-23T20:36:34.242Z,13.55
2022-12-23T20:39:04.112Z,13.51
2022-12-23T20:41:33.727Z,13.48
2022-12-23T20:44:33.882Z,13.47
2022-12-23T20:46:52.881Z,13.49
2022-12-23T20:49:21.581Z,13.50
2022-12-23T20:51:50.093Z,13.53
2022-12-23T20:54:18.634Z,13.55
2022-12-23T20:56:47.154Z,13.56
2022-12-23T20:59:15.612Z,13.58
2022-12-23T21:01:44.096Z,13.59
2022-12-23T21:04:16.832Z,13.60
2022-12-23T21:06:45.887Z,13.62
2022-12-23T21:09:16.483Z,13.64
2022-12-23T21:11:47.479Z,13.66
2022-12-23T21:14:16.890Z,13.65
2022-12-23T21:16:45.866Z,13.65
2022-12-23T21:19:19.691Z,13.64
2022-12-23T21:21:49.220Z,13.65
2022-12-23T21:24:18.664Z,13.65
2022-12-23T21:26:55.619Z,13.65
2022-12-23T21:29:25.151Z,13.65
2022-12-23T21:31:55.027Z,13.64
2022-12-23T21:34:25.380Z,13.67
2022-12-23T21:36:53.985Z,13.65
2022-12-23T21:39:22.543Z,13.64
2022-12-23T21:41:52.778Z,13.62
2022-12-23T21:44:21.236Z,13.60
2022-12-23T21:46:52.119Z,13.60
2022-12-23T21:49:21.490Z,13.62
2022-12-23T21:51:51.469Z,13.61
2022-12-23T21:54:20.012Z,13.58
2022-12-23T21:56:48.459Z,13.56
2022-12-23T21:59:17.088Z,13.51
2022-12-23T22:01:45.690Z,13.51
2022-12-23T22:04:14.663Z,13.50
2022-12-23T22:06:45.700Z,13.49
2022-12-23T22:09:18.506Z,13.51
2022-12-23T22:11:47.969Z,13.52
2022-12-23T22:14:19.879Z,13.54
2022-12-23T22:16:48.464Z,13.56
2022-12-23T22:19:17.701Z,13.57
2022-12-23T22:21:46.382Z,13.61
2022-12-23T22:24:16.239Z,13.64
2022-12-23T22:26:44.713Z,13.65
2022-12-23T22:29:13.452Z,13.66
2022-12-23T22:31:45.989Z,13.67
2022-12-23T22:34:17.585Z,13.68
2022-12-23T22:36:46.618Z,13.69
2022-12-23T22:39:21.008Z,13.66
2022-12-23T22:41:50.571Z,13.64
2022-12-23T22:44:19.600Z,13.59
2022-12-23T22:46:48.075Z,13.55
2022-12-23T22:49:17.700Z,13.49
2022-12-23T22:51:46.554Z,13.45
2022-12-23T22:54:16.435Z,13.40
2022-12-23T22:56:45.885Z,13.35
2022-12-23T22:59:22.780Z,13.30
2022-12-23T23:01:53.561Z,13.28
2022-12-23T23:04:22.523Z,13.23
2022-12-23T23:06:51.146Z,13.20
2022-12-23T23:09:23.205Z,13.17
2022-12-23T23:11:54.259Z,13.16
2022-12-23T23:14:22.795Z,13.14
2022-12-23T23:16:51.404Z,13.14
2022-12-23T23:19:21.278Z,13.12
2022-12-23T23:21:49.974Z,13.11
2022-12-23T23:24:18.480Z,13.09
2022-12-23T23:26:48.334Z,13.07
2022-12-23T23:29:16.848Z,13.06
2022-12-23T23:31:45.428Z,13.04
2022-12-23T23:34:13.948Z,13.01
2022-12-23T23:36:42.898Z,12.99
2022-12-23T23:39:13.798Z,12.97
2022-12-23T23:41:42.533Z,12.98
2022-12-23T23:44:13.036Z,12.97
2022-12-23T23:46:41.730Z,12.96
2022-12-23T23:49:10.211Z,12.95
2022-12-23T23:51:39.248Z,12.93
2022-12-23T23:54:07.888Z,12.92
2022-12-23T23:56:39.236Z,12.91
2022-12-23T23:59:09.029Z,12.90
